LFMD/CEQ METAR and TAF weather

Enter ICAO airport designator
Station Type Date Time Source
LFMD METAR 2020/07/06 23:30 UTC NOAA

LFMD 062330Z AUTO VRB02KT CAVOK 21/19 Q1007


Station Type Date Time Source
LFMD Decoded METAR 2020/07/06 23:30 UTC NOAA

Cannes, France (LFMD) 43-33N 006-57E 9M
Jul 06, 2020 - 07:30 PM EDT / 2020.07.06 2330 UTC
Wind: Variable at 2 MPH (2 KT):0
Visibility: greater than 7 mile(s):0
Temperature: 69 F (21 C)
Dew Point: 66 F (19 C)
Relative Humidity: 88%
Pressure (altimeter): 29.74 in. Hg (1007 hPa)
ob: LFMD 062330Z AUTO VRB02KT CAVOK 21/19 Q1007
cycle: 23

Station Type Date Time Source
LFMD TAF 2020/07/06 21:21 UTC NOAA

TAF LFMD 062112Z 0621/0715 CNL

Example: see airport list